sensor_id;sensor_type;location;lat;lon;timestamp;pressure;altitude;pressure_sealevel;temperature;humidity
57114;BME280;42994;51.606;9.988;2023-04-06T00:01:37;99425.59;;;-1.65;100.00
57114;BME280;42994;51.606;9.988;2023-04-06T00:04:04;99418.88;;;-1.69;100.00
57114;BME280;42994;51.606;9.988;2023-04-06T00:06:31;99419.63;;;-1.67;100.00
57114;BME280;42994;51.606;9.988;2023-04-06T00:08:59;99421.06;;;-1.76;100.00
57114;BME280;42994;51.606;9.988;2023-04-06T00:11:27;99422.00;;;-1.77;100.00
57114;BME280;42994;51.606;9.988;2023-04-06T00:13:54;99422.13;;;-1.79;100.00
57114;BME280;42994;51.606;9.988;2023-04-06T00:16:21;99423.25;;;-1.83;100.00
57114;BME280;42994;51.606;9.988;2023-04-06T00:18:48;99417.91;;;-1.81;100.00
57114;BME280;42994;51.606;9.988;2023-04-06T00:21:15;99412.84;;;-1.97;100.00
57114;BME280;42994;51.606;9.988;2023-04-06T00:23:41;99417.88;;;-1.94;100.00
57114;BME280;42994;51.606;9.988;2023-04-06T00:26:08;99411.59;;;-2.04;100.00
57114;BME280;42994;51.606;9.988;2023-04-06T00:28:39;99406.53;;;-1.95;100.00
57114;BME280;42994;51.606;9.988;2023-04-06T00:31:06;99403.38;;;-2.00;100.00
57114;BME280;42994;51.606;9.988;2023-04-06T00:33:33;99398.44;;;-2.04;100.00
57114;BME280;42994;51.606;9.988;2023-04-06T00:36:00;99407.81;;;-2.00;100.00
57114;BME280;42994;51.606;9.988;2023-04-06T00:38:27;99398.56;;;-1.93;100.00
57114;BME280;42994;51.606;9.988;2023-04-06T00:40:54;99392.88;;;-2.00;100.00
57114;BME280;42994;51.606;9.988;2023-04-06T00:43:20;99387.72;;;-2.01;100.00
57114;BME280;42994;51.606;9.988;2023-04-06T00:45:49;99386.66;;;-2.11;100.00
57114;BME280;42994;51.606;9.988;2023-04-06T00:48:16;99387.81;;;-2.03;100.00
57114;BME280;42994;51.606;9.988;2023-04-06T00:50:43;99382.56;;;-2.03;100.00
57114;BME280;42994;51.606;9.988;2023-04-06T00:53:10;99373.75;;;-2.02;100.00
57114;BME280;42994;51.606;9.988;2023-04-06T00:55:41;99376.88;;;-2.09;100.00
57114;BME280;42994;51.606;9.988;2023-04-06T00:58:14;99381.59;;;-2.15;100.00
57114;BME280;42994;51.606;9.988;2023-04-06T01:00:52;99382.22;;;-2.24;100.00
57114;BME280;42994;51.606;9.988;2023-04-06T01:03:21;99378.28;;;-2.44;100.00
57114;BME280;42994;51.606;9.988;2023-04-06T01:05:48;99374.69;;;-2.43;100.00
57114;BME280;42994;51.606;9.988;2023-04-06T01:08:22;99374.94;;;-2.33;100.00
57114;BME280;42994;51.606;9.988;2023-04-06T01:10:53;99378.13;;;-2.28;100.00
57114;BME280;42994;51.606;9.988;2023-04-06T01:13:24;99369.88;;;-2.36;100.00
57114;BME280;42994;51.606;9.988;2023-04-06T01:15:55;99368.84;;;-2.34;100.00
57114;BME280;42994;51.606;9.988;2023-04-06T01:18:30;99361.91;;;-2.35;100.00
57114;BME280;42994;51.606;9.988;2023-04-06T01:21:23;99357.72;;;-2.37;100.00
57114;BME280;42994;51.606;9.988;2023-04-06T01:24:13;99365.72;;;-2.26;100.00
57114;BME280;42994;51.606;9.988;2023-04-06T01:27:03;99350.97;;;-2.41;100.00
57114;BME280;42994;51.606;9.988;2023-04-06T01:29:48;99353.31;;;-2.64;100.00
57114;BME280;42994;51.606;9.988;2023-04-06T01:32:25;99349.03;;;-2.52;100.00
57114;BME280;42994;51.606;9.988;2023-04-06T01:34:52;99349.00;;;-2.65;100.00
57114;BME280;42994;51.606;9.988;2023-04-06T01:37:20;99341.38;;;-2.55;100.00
57114;BME280;42994;51.606;9.988;2023-04-06T01:39:49;99341.28;;;-2.54;100.00
57114;BME280;42994;51.606;9.988;2023-04-06T01:42:25;99345.91;;;-2.57;100.00
57114;BME280;42994;51.606;9.988;2023-04-06T01:44:53;99345.53;;;-2.65;100.00
57114;BME280;42994;51.606;9.988;2023-04-06T01:47:20;99337.91;;;-2.56;100.00
57114;BME280;42994;51.606;9.988;2023-04-06T01:49:47;99343.38;;;-2.59;100.00
57114;BME280;42994;51.606;9.988;2023-04-06T01:52:16;99341.94;;;-2.50;100.00
57114;BME280;42994;51.606;9.988;2023-04-06T01:54:51;99346.13;;;-2.47;100.00
57114;BME280;42994;51.606;9.988;2023-04-06T01:57:38;99337.56;;;-2.64;100.00
57114;BME280;42994;51.606;9.988;2023-04-06T02:00:16;99341.88;;;-2.63;100.00
57114;BME280;42994;51.606;9.988;2023-04-06T02:02:50;99336.22;;;-2.57;100.00
57114;BME280;42994;51.606;9.988;2023-04-06T02:05:22;99329.84;;;-2.53;100.00
57114;BME280;42994;51.606;9.988;2023-04-06T02:07:51;99326.53;;;-2.69;100.00
57114;BME280;42994;51.606;9.988;2023-04-06T02:10:27;99329.59;;;-2.62;100.00
57114;BME280;42994;51.606;9.988;2023-04-06T02:12:57;99333.25;;;-2.65;100.00
57114;BME280;42994;51.606;9.988;2023-04-06T02:15:26;99326.34;;;-2.66;100.00
57114;BME280;42994;51.606;9.988;2023-04-06T02:17:53;99341.63;;;-2.73;100.00
57114;BME280;42994;51.606;9.988;2023-04-06T02:20:20;99332.72;;;-2.70;100.00
57114;BME280;42994;51.606;9.988;2023-04-06T02:22:47;99338.16;;;-2.73;100.00
57114;BME280;42994;51.606;9.988;2023-04-06T02:25:14;99337.03;;;-2.69;100.00
57114;BME280;42994;51.606;9.988;2023-04-06T02:27:42;99334.81;;;-2.75;100.00
57114;BME280;42994;51.606;9.988;2023-04-06T02:30:10;99332.56;;;-2.81;100.00
57114;BME280;42994;51.606;9.988;2023-04-06T02:32:37;99335.09;;;-2.80;100.00
57114;BME280;42994;51.606;9.988;2023-04-06T02:35:07;99336.63;;;-2.90;100.00
57114;BME280;42994;51.606;9.988;2023-04-06T02:37:34;99336.72;;;-2.92;100.00
57114;BME280;42994;51.606;9.988;2023-04-06T02:40:15;99337.00;;;-2.96;100.00
57114;BME280;42994;51.606;9.988;2023-04-06T02:42:51;99328.00;;;-2.92;100.00
57114;BME280;42994;51.606;9.988;2023-04-06T02:45:26;99325.69;;;-2.97;100.00
57114;BME280;42994;51.606;9.988;2023-04-06T02:47:55;99331.03;;;-2.98;100.00
57114;BME280;42994;51.606;9.988;2023-04-06T02:50:23;99327.19;;;-3.07;100.00
57114;BME280;42994;51.606;9.988;2023-04-06T02:52:57;99333.66;;;-2.98;100.00
57114;BME280;42994;51.606;9.988;2023-04-06T02:55:24;99329.34;;;-2.99;100.00
57114;BME280;42994;51.606;9.988;2023-04-06T02:57:53;99328.03;;;-3.48;100.00
57114;BME280;42994;51.606;9.988;2023-04-06T03:00:25;99332.78;;;-3.26;100.00
57114;BME280;42994;51.606;9.988;2023-04-06T03:02:52;99333.03;;;-3.16;100.00
57114;BME280;42994;51.606;9.988;2023-04-06T03:05:20;99331.38;;;-3.17;100.00
57114;BME280;42994;51.606;9.988;2023-04-06T03:07:47;99324.25;;;-3.15;100.00
57114;BME280;42994;51.606;9.988;2023-04-06T03:10:22;99328.94;;;-3.35;100.00
57114;BME280;42994;51.606;9.988;2023-04-06T03:12:49;99326.06;;;-3.30;100.00
57114;BME280;42994;51.606;9.988;2023-04-06T03:15:22;99330.00;;;-3.37;100.00
57114;BME280;42994;51.606;9.988;2023-04-06T03:17:58;99321.34;;;-3.25;100.00
57114;BME280;42994;51.606;9.988;2023-04-06T03:20:34;99322.56;;;-3.31;100.00
57114;BME280;42994;51.606;9.988;2023-04-06T03:23:01;99324.53;;;-3.34;100.00
57114;BME280;42994;51.606;9.988;2023-04-06T03:25:32;99312.38;;;-3.35;100.00
57114;BME280;42994;51.606;9.988;2023-04-06T03:28:03;99319.19;;;-3.33;100.00
57114;BME280;42994;51.606;9.988;2023-04-06T03:30:34;99321.63;;;-3.30;100.00
57114;BME280;42994;51.606;9.988;2023-04-06T03:33:02;99326.41;;;-3.36;100.00
57114;BME280;42994;51.606;9.988;2023-04-06T03:35:32;99327.38;;;-3.66;100.00
57114;BME280;42994;51.606;9.988;2023-04-06T03:37:59;99330.09;;;-3.53;100.00
57114;BME280;42994;51.606;9.988;2023-04-06T03:40:28;99329.53;;;-3.44;100.00
57114;BME280;42994;51.606;9.988;2023-04-06T03:42:55;99334.00;;;-3.46;100.00
57114;BME280;42994;51.606;9.988;2023-04-06T03:45:22;99332.88;;;-3.42;100.00
57114;BME280;42994;51.606;9.988;2023-04-06T03:47:51;99329.72;;;-3.76;100.00
57114;BME280;42994;51.606;9.988;2023-04-06T03:50:18;99325.78;;;-3.54;100.00
57114;BME280;42994;51.606;9.988;2023-04-06T03:52:45;99334.84;;;-3.45;100.00
57114;BME280;42994;51.606;9.988;2023-04-06T03:55:12;99335.59;;;-3.43;100.00
57114;BME280;42994;51.606;9.988;2023-04-06T03:57:41;99321.31;;;-3.52;100.00
57114;BME280;42994;51.606;9.988;2023-04-06T04:00:10;99327.06;;;-3.47;100.00
57114;BME280;42994;51.606;9.988;2023-04-06T04:02:40;99330.09;;;-3.53;100.00
57114;BME280;42994;51.606;9.988;2023-04-06T04:05:09;99328.59;;;-3.57;100.00
57114;BME280;42994;51.606;9.988;2023-04-06T04:07:36;99332.63;;;-3.52;100.00
57114;BME280;42994;51.606;9.988;2023-04-06T04:10:04;99331.56;;;-3.49;100.00
57114;BME280;42994;51.606;9.988;2023-04-06T04:12:31;99334.28;;;-3.51;100.00
57114;BME280;42994;51.606;9.988;2023-04-06T04:14:58;99341.69;;;-3.57;100.00
57114;BME280;42994;51.606;9.988;2023-04-06T04:17:25;99343.19;;;-3.68;100.00
57114;BME280;42994;51.606;9.988;2023-04-06T04:19:52;99341.88;;;-3.60;100.00
57114;BME280;42994;51.606;9.988;2023-04-06T04:22:20;99345.59;;;-3.93;100.00
57114;BME280;42994;51.606;9.988;2023-04-06T04:24:47;99347.31;;;-3.92;100.00
57114;BME280;42994;51.606;9.988;2023-04-06T04:27:14;99350.47;;;-4.01;100.00
57114;BME280;42994;51.606;9.988;2023-04-06T04:29:42;99344.69;;;-3.92;100.00
57114;BME280;42994;51.606;9.988;2023-04-06T04:32:11;99352.22;;;-4.02;100.00
57114;BME280;42994;51.606;9.988;2023-04-06T04:34:38;99337.38;;;-3.87;100.00
57114;BME280;42994;51.606;9.988;2023-04-06T04:37:08;99342.81;;;-3.76;100.00
57114;BME280;42994;51.606;9.988;2023-04-06T04:39:53;99341.78;;;-3.73;100.00
57114;BME280;42994;51.606;9.988;2023-04-06T04:42:20;99338.97;;;-3.84;100.00
57114;BME280;42994;51.606;9.988;2023-04-06T04:44:51;99341.88;;;-3.75;100.00
57114;BME280;42994;51.606;9.988;2023-04-06T04:47:29;99348.06;;;-3.76;100.00
57114;BME280;42994;51.606;9.988;2023-04-06T04:49:56;99347.59;;;-3.68;100.00
57114;BME280;42994;51.606;9.988;2023-04-06T04:52:25;99352.66;;;-3.65;100.00
57114;BME280;42994;51.606;9.988;2023-04-06T04:55:16;99353.66;;;-3.68;100.00
57114;BME280;42994;51.606;9.988;2023-04-06T04:57:46;99350.84;;;-3.79;100.00
57114;BME280;42994;51.606;9.988;2023-04-06T05:00:15;99346.00;;;-3.85;100.00
57114;BME280;42994;51.606;9.988;2023-04-06T05:02:43;99347.97;;;-3.89;100.00
57114;BME280;42994;51.606;9.988;2023-04-06T05:05:21;99353.16;;;-4.03;100.00
57114;BME280;42994;51.606;9.988;2023-04-06T05:07:58;99352.81;;;-3.82;100.00
57114;BME280;42994;51.606;9.988;2023-04-06T05:10:56;99353.38;;;-3.77;100.00
57114;BME280;42994;51.606;9.988;2023-04-06T05:13:23;99356.59;;;-3.72;100.00
57114;BME280;42994;51.606;9.988;2023-04-06T05:15:52;99359.28;;;-3.88;100.00
57114;BME280;42994;51.606;9.988;2023-04-06T05:18:23;99356.84;;;-3.77;100.00
57114;BME280;42994;51.606;9.988;2023-04-06T05:20:50;99357.97;;;-3.81;100.00
57114;BME280;42994;51.606;9.988;2023-04-06T05:23:21;99351.03;;;-3.82;100.00
57114;BME280;42994;51.606;9.988;2023-04-06T05:25:49;99354.59;;;-3.83;100.00
57114;BME280;42994;51.606;9.988;2023-04-06T05:28:21;99343.19;;;-3.82;100.00
57114;BME280;42994;51.606;9.988;2023-04-06T05:30:48;99354.06;;;-3.74;100.00
57114;BME280;42994;51.606;9.988;2023-04-06T05:33:16;99351.13;;;-3.69;100.00
57114;BME280;42994;51.606;9.988;2023-04-06T05:36:06;99345.44;;;-3.76;100.00
57114;BME280;42994;51.606;9.988;2023-04-06T05:38:36;99346.75;;;-3.69;100.00
57114;BME280;42994;51.606;9.988;2023-04-06T05:41:14;99350.13;;;-3.67;100.00
57114;BME280;42994;51.606;9.988;2023-04-06T05:43:43;99346.75;;;-3.69;100.00
57114;BME280;42994;51.606;9.988;2023-04-06T05:46:10;99351.88;;;-3.67;100.00
57114;BME280;42994;51.606;9.988;2023-04-06T05:48:36;99347.69;;;-3.70;100.00
57114;BME280;42994;51.606;9.988;2023-04-06T05:51:03;99347.78;;;-3.57;100.00
57114;BME280;42994;51.606;9.988;2023-04-06T05:53:47;99344.97;;;-3.54;100.00
57114;BME280;42994;51.606;9.988;2023-04-06T05:56:14;99351.06;;;-3.53;100.00
57114;BME280;42994;51.606;9.988;2023-04-06T05:58:43;99350.88;;;-3.50;100.00
57114;BME280;42994;51.606;9.988;2023-04-06T06:01:13;99349.00;;;-3.48;100.00
57114;BME280;42994;51.606;9.988;2023-04-06T06:03:44;99348.69;;;-3.43;100.00
57114;BME280;42994;51.606;9.988;2023-04-06T06:06:13;99341.41;;;-3.38;100.00
57114;BME280;42994;51.606;9.988;2023-04-06T06:08:52;99346.28;;;-3.46;100.00
57114;BME280;42994;51.606;9.988;2023-04-06T06:11:19;99345.31;;;-3.31;100.00
57114;BME280;42994;51.606;9.988;2023-04-06T06:13:49;99343.75;;;-3.34;100.00
57114;BME280;42994;51.606;9.988;2023-04-06T06:16:19;99342.44;;;-3.26;100.00
57114;BME280;42994;51.606;9.988;2023-04-06T06:18:47;99346.44;;;-3.21;100.00
57114;BME280;42994;51.606;9.988;2023-04-06T06:21:15;99339.28;;;-3.04;100.00
57114;BME280;42994;51.606;9.988;2023-04-06T06:23:43;99337.16;;;-3.12;100.00
57114;BME280;42994;51.606;9.988;2023-04-06T06:26:15;99338.44;;;-3.05;100.00
57114;BME280;42994;51.606;9.988;2023-04-06T06:28:42;99334.25;;;-2.80;100.00
57114;BME280;42994;51.606;9.988;2023-04-06T06:31:12;99332.59;;;-2.68;100.00
57114;BME280;42994;51.606;9.988;2023-04-06T06:33:40;99332.66;;;-2.56;100.00
57114;BME280;42994;51.606;9.988;2023-04-06T06:36:07;99340.75;;;-2.59;100.00
57114;BME280;42994;51.606;9.988;2023-04-06T06:38:34;99338.69;;;-2.41;100.00
57114;BME280;42994;51.606;9.988;2023-04-06T06:41:01;99345.06;;;-2.45;100.00
57114;BME280;42994;51.606;9.988;2023-04-06T06:43:31;99343.00;;;-2.40;100.00
57114;BME280;42994;51.606;9.988;2023-04-06T06:46:01;99339.13;;;-2.21;100.00
57114;BME280;42994;51.606;9.988;2023-04-06T06:48:30;99346.31;;;-1.85;100.00
57114;BME280;42994;51.606;9.988;2023-04-06T06:50:57;99348.75;;;-1.82;100.00
57114;BME280;42994;51.606;9.988;2023-04-06T06:53:36;99346.66;;;-1.51;100.00
57114;BME280;42994;51.606;9.988;2023-04-06T06:56:17;99349.47;;;-1.41;100.00
57114;BME280;42994;51.606;9.988;2023-04-06T06:58:44;99345.88;;;-1.27;100.00
57114;BME280;42994;51.606;9.988;2023-04-06T07:01:11;99348.66;;;-1.05;100.00
57114;BME280;42994;51.606;9.988;2023-04-06T07:03:39;99346.78;;;-1.16;100.00
57114;BME280;42994;51.606;9.988;2023-04-06T07:06:06;99341.66;;;-0.80;100.00
57114;BME280;42994;51.606;9.988;2023-04-06T07:08:33;99340.75;;;-0.44;100.00
57114;BME280;42994;51.606;9.988;2023-04-06T07:11:02;99330.94;;;-0.42;100.00
57114;BME280;42994;51.606;9.988;2023-04-06T07:13:28;99334.50;;;-0.43;100.00
57114;BME280;42994;51.606;9.988;2023-04-06T07:15:57;99336.56;;;0.01;100.00
57114;BME280;42994;51.606;9.988;2023-04-06T07:18:25;99328.16;;;-0.05;100.00
57114;BME280;42994;51.606;9.988;2023-04-06T07:20:53;99329.50;;;0.01;100.00
57114;BME280;42994;51.606;9.988;2023-04-06T07:23:20;99325.88;;;-0.09;100.00
57114;BME280;42994;51.606;9.988;2023-04-06T07:25:47;99333.13;;;0.45;100.00
57114;BME280;42994;51.606;9.988;2023-04-06T07:28:16;99331.81;;;0.40;100.00
57114;BME280;42994;51.606;9.988;2023-04-06T07:30:47;99326.19;;;0.78;100.00
57114;BME280;42994;51.606;9.988;2023-04-06T07:33:16;99327.63;;;0.60;100.00
57114;BME280;42994;51.606;9.988;2023-04-06T07:35:43;99331.09;;;0.94;100.00
57114;BME280;42994;51.606;9.988;2023-04-06T07:38:12;99323.66;;;0.88;100.00
57114;BME280;42994;51.606;9.988;2023-04-06T07:40:40;99334.78;;;1.03;100.00
57114;BME280;42994;51.606;9.988;2023-04-06T07:43:07;99327.25;;;1.42;100.00
57114;BME280;42994;51.606;9.988;2023-04-06T07:45:35;99327.06;;;1.54;100.00
57114;BME280;42994;51.606;9.988;2023-04-06T07:48:02;99328.31;;;1.71;100.00
57114;BME280;42994;51.606;9.988;2023-04-06T07:50:30;99324.47;;;1.97;100.00
57114;BME280;42994;51.606;9.988;2023-04-06T07:52:57;99320.34;;;2.25;100.00
57114;BME280;42994;51.606;9.988;2023-04-06T07:55:31;99315.41;;;2.41;100.00
57114;BME280;42994;51.606;9.988;2023-04-06T07:58:16;99322.06;;;2.36;100.00
57114;BME280;42994;51.606;9.988;2023-04-06T08:00:44;99320.47;;;2.23;100.00
57114;BME280;42994;51.606;9.988;2023-04-06T08:06:58;99310.63;;;2.66;100.00
57114;BME280;42994;51.606;9.988;2023-04-06T08:09:25;99308.25;;;3.03;100.00
57114;BME280;42994;51.606;9.988;2023-04-06T08:11:53;99307.47;;;3.42;100.00
57114;BME280;42994;51.606;9.988;2023-04-06T08:14:20;99304.34;;;3.17;100.00
57114;BME280;42994;51.606;9.988;2023-04-06T08:16:47;99301.72;;;3.37;100.00
57114;BME280;42994;51.606;9.988;2023-04-06T08:19:13;99304.81;;;3.71;100.00
57114;BME280;42994;51.606;9.988;2023-04-06T08:21:42;99301.47;;;3.69;100.00
57114;BME280;42994;51.606;9.988;2023-04-06T08:24:09;99284.84;;;3.77;100.00
57114;BME280;42994;51.606;9.988;2023-04-06T08:26:36;99294.31;;;3.89;100.00
57114;BME280;42994;51.606;9.988;2023-04-06T08:29:04;99290.19;;;4.24;100.00
57114;BME280;42994;51.606;9.988;2023-04-06T08:31:33;99288.25;;;4.54;100.00
57114;BME280;42994;51.606;9.988;2023-04-06T08:33:59;99287.53;;;4.61;100.00
57114;BME280;42994;51.606;9.988;2023-04-06T08:36:27;99281.38;;;4.89;100.00
57114;BME280;42994;51.606;9.988;2023-04-06T08:38:53;99277.03;;;5.15;98.75
57114;BME280;42994;51.606;9.988;2023-04-06T08:41:20;99281.91;;;5.38;97.49
57114;BME280;42994;51.606;9.988;2023-04-06T08:43:48;99273.47;;;5.61;97.05
57114;BME280;42994;51.606;9.988;2023-04-06T08:46:17;99272.19;;;5.65;94.76
57114;BME280;42994;51.606;9.988;2023-04-06T08:48:45;99277.22;;;5.94;94.71
57114;BME280;42994;51.606;9.988;2023-04-06T08:51:14;99273.41;;;6.41;93.62
57114;BME280;42994;51.606;9.988;2023-04-06T08:53:41;99274.09;;;6.51;92.59
57114;BME280;42994;51.606;9.988;2023-04-06T08:56:09;99272.09;;;6.53;91.33
57114;BME280;42994;51.606;9.988;2023-04-06T08:58:39;99263.50;;;6.67;90.73
57114;BME280;42994;51.606;9.988;2023-04-06T09:01:08;99258.59;;;6.46;87.35
57114;BME280;42994;51.606;9.988;2023-04-06T09:03:39;99250.91;;;6.78;86.40
57114;BME280;42994;51.606;9.988;2023-04-06T09:06:07;99258.16;;;7.26;87.08
57114;BME280;42994;51.606;9.988;2023-04-06T09:08:35;99254.34;;;7.37;84.13
57114;BME280;42994;51.606;9.988;2023-04-06T09:11:03;99250.16;;;7.26;84.01
57114;BME280;42994;51.606;9.988;2023-04-06T09:13:30;99260.22;;;7.65;83.31
57114;BME280;42994;51.606;9.988;2023-04-06T09:16:01;99246.34;;;8.11;82.42
57114;BME280;42994;51.606;9.988;2023-04-06T09:18:28;99247.97;;;8.12;82.26
57114;BME280;42994;51.606;9.988;2023-04-06T09:21:03;99243.16;;;8.72;79.95
57114;BME280;42994;51.606;9.988;2023-04-06T09:23:30;99250.59;;;8.45;77.85
57114;BME280;42994;51.606;9.988;2023-04-06T09:26:05;99251.03;;;8.65;77.91
57114;BME280;42994;51.606;9.988;2023-04-06T09:28:43;99226.31;;;8.71;73.66
57114;BME280;42994;51.606;9.988;2023-04-06T09:31:11;99207.94;;;8.20;66.01
57114;BME280;42994;51.606;9.988;2023-04-06T09:33:38;99209.41;;;8.23;64.90
57114;BME280;42994;51.606;9.988;2023-04-06T09:36:07;99214.69;;;8.39;66.17
57114;BME280;42994;51.606;9.988;2023-04-06T09:38:36;99199.56;;;8.71;63.62
57114;BME280;42994;51.606;9.988;2023-04-06T09:41:03;99189.84;;;8.47;59.64
57114;BME280;42994;51.606;9.988;2023-04-06T09:43:30;99193.81;;;8.51;59.52
57114;BME280;42994;51.606;9.988;2023-04-06T09:45:59;99205.56;;;9.04;62.25
57114;BME280;42994;51.606;9.988;2023-04-06T09:48:31;99199.97;;;9.14;62.92
57114;BME280;42994;51.606;9.988;2023-04-06T09:51:04;99201.59;;;9.00;61.81
57114;BME280;42994;51.606;9.988;2023-04-06T09:53:37;99194.03;;;9.27;61.72
57114;BME280;42994;51.606;9.988;2023-04-06T09:56:09;99197.81;;;9.56;61.84
57114;BME280;42994;51.606;9.988;2023-04-06T09:58:40;99169.91;;;8.89;54.01
57114;BME280;42994;51.606;9.988;2023-04-06T10:01:12;99187.72;;;9.43;58.73
57114;BME280;42994;51.606;9.988;2023-04-06T10:03:45;99181.31;;;9.67;57.60
57114;BME280;42994;51.606;9.988;2023-04-06T10:06:17;99174.97;;;9.83;56.74
57114;BME280;42994;51.606;9.988;2023-04-06T10:08:49;99160.78;;;9.45;53.85
57114;BME280;42994;51.606;9.988;2023-04-06T10:11:19;99172.94;;;9.70;56.38
57114;BME280;42994;51.606;9.988;2023-04-06T10:13:48;99175.16;;;9.96;55.89
57114;BME280;42994;51.606;9.988;2023-04-06T10:16:17;99169.19;;;10.24;56.92
57114;BME280;42994;51.606;9.988;2023-04-06T10:18:46;99164.31;;;10.28;55.25
57114;BME280;42994;51.606;9.988;2023-04-06T10:21:19;99163.28;;;9.99;54.98
57114;BME280;42994;51.606;9.988;2023-04-06T10:23:51;99160.94;;;10.26;54.62
57114;BME280;42994;51.606;9.988;2023-04-06T10:26:20;99144.53;;;10.14;51.50
57114;BME280;42994;51.606;9.988;2023-04-06T10:28:48;99151.84;;;10.35;54.09
57114;BME280;42994;51.606;9.988;2023-04-06T10:31:24;99157.84;;;10.37;54.32
57114;BME280;42994;51.606;9.988;2023-04-06T10:33:54;99131.78;;;10.16;51.41
57114;BME280;42994;51.606;9.988;2023-04-06T10:36:22;99154.59;;;9.97;53.87
57114;BME280;42994;51.606;9.988;2023-04-06T10:38:56;99156.44;;;10.41;54.71
57114;BME280;42994;51.606;9.988;2023-04-06T10:41:23;99156.84;;;10.74;53.54
57114;BME280;42994;51.606;9.988;2023-04-06T10:44:00;99149.94;;;10.65;53.22
57114;BME280;42994;51.606;9.988;2023-04-06T10:46:29;99145.44;;;10.51;51.90
57114;BME280;42994;51.606;9.988;2023-04-06T10:48:56;99139.72;;;10.39;50.49
57114;BME280;42994;51.606;9.988;2023-04-06T10:51:25;99132.03;;;10.51;50.90
57114;BME280;42994;51.606;9.988;2023-04-06T10:53:55;99128.63;;;10.42;50.26
57114;BME280;42994;51.606;9.988;2023-04-06T10:56:23;99119.56;;;10.43;51.25
57114;BME280;42994;51.606;9.988;2023-04-06T10:58:53;99125.56;;;10.45;49.67
57114;BME280;42994;51.606;9.988;2023-04-06T11:01:22;99128.84;;;10.62;50.43
57114;BME280;42994;51.606;9.988;2023-04-06T11:03:50;99123.94;;;10.44;50.54
57114;BME280;42994;51.606;9.988;2023-04-06T11:06:18;99128.94;;;10.69;50.89
57114;BME280;42994;51.606;9.988;2023-04-06T11:08:45;99123.25;;;10.57;50.27
57114;BME280;42994;51.606;9.988;2023-04-06T11:11:14;99121.44;;;10.28;48.08
57114;BME280;42994;51.606;9.988;2023-04-06T11:13:45;99135.41;;;9.93;48.91
57114;BME280;42994;51.606;9.988;2023-04-06T11:16:13;99125.03;;;10.05;49.29
57114;BME280;42994;51.606;9.988;2023-04-06T11:18:47;99138.72;;;10.10;49.33
57114;BME280;42994;51.606;9.988;2023-04-06T11:21:14;99122.00;;;10.08;48.21
57114;BME280;42994;51.606;9.988;2023-04-06T11:23:41;99146.56;;;10.42;51.24
57114;BME280;42994;51.606;9.988;2023-04-06T11:26:10;99134.72;;;10.51;51.42
57114;BME280;42994;51.606;9.988;2023-04-06T11:28:40;99143.31;;;10.83;51.80
57114;BME280;42994;51.606;9.988;2023-04-06T11:31:07;99138.06;;;10.74;52.03
57114;BME280;42994;51.606;9.988;2023-04-06T11:33:37;99131.56;;;10.84;50.87
57114;BME280;42994;51.606;9.988;2023-04-06T11:36:05;99103.00;;;10.54;47.19
57114;BME280;42994;51.606;9.988;2023-04-06T11:38:39;99091.88;;;10.36;47.65
57114;BME280;42994;51.606;9.988;2023-04-06T11:41:06;99112.59;;;10.64;50.36
57114;BME280;42994;51.606;9.988;2023-04-06T11:43:33;99121.63;;;10.99;52.65
57114;BME280;42994;51.606;9.988;2023-04-06T11:46:01;99111.34;;;11.03;51.08
57114;BME280;42994;51.606;9.988;2023-04-06T11:48:29;99110.56;;;11.09;50.52
57114;BME280;42994;51.606;9.988;2023-04-06T11:50:56;99112.03;;;11.11;51.25
57114;BME280;42994;51.606;9.988;2023-04-06T11:53:26;99110.28;;;11.25;51.44
57114;BME280;42994;51.606;9.988;2023-04-06T11:55:53;99116.44;;;11.19;51.36
57114;BME280;42994;51.606;9.988;2023-04-06T11:58:19;99111.84;;;11.13;51.19
57114;BME280;42994;51.606;9.988;2023-04-06T12:00:46;99111.47;;;11.16;51.63
57114;BME280;42994;51.606;9.988;2023-04-06T12:03:14;99097.41;;;11.14;50.06
57114;BME280;42994;51.606;9.988;2023-04-06T12:05:42;99099.28;;;11.42;51.32
57114;BME280;42994;51.606;9.988;2023-04-06T12:08:09;99095.16;;;11.18;50.70
57114;BME280;42994;51.606;9.988;2023-04-06T12:10:35;99089.25;;;11.57;51.97
57114;BME280;42994;51.606;9.988;2023-04-06T12:13:02;99085.09;;;11.83;51.62
57114;BME280;42994;51.606;9.988;2023-04-06T12:15:29;99089.19;;;11.72;51.42
57114;BME280;42994;51.606;9.988;2023-04-06T12:17:55;99083.19;;;11.77;50.96
57114;BME280;42994;51.606;9.988;2023-04-06T12:20:23;99065.97;;;11.92;50.21
57114;BME280;42994;51.606;9.988;2023-04-06T12:22:50;99087.91;;;12.03;51.36
57114;BME280;42994;51.606;9.988;2023-04-06T12:25:17;99068.31;;;11.74;49.20
57114;BME280;42994;51.606;9.988;2023-04-06T12:27:44;99078.22;;;11.73;50.40
57114;BME280;42994;51.606;9.988;2023-04-06T12:30:11;99050.16;;;11.76;47.52
57114;BME280;42994;51.606;9.988;2023-04-06T12:32:38;99062.47;;;11.99;49.41
57114;BME280;42994;51.606;9.988;2023-04-06T12:35:05;99063.09;;;12.01;48.47
57114;BME280;42994;51.606;9.988;2023-04-06T12:37:35;99068.47;;;12.01;49.24
57114;BME280;42994;51.606;9.988;2023-04-06T12:40:02;99064.63;;;12.17;49.94
57114;BME280;42994;51.606;9.988;2023-04-06T12:42:29;99066.41;;;11.96;49.47
57114;BME280;42994;51.606;9.988;2023-04-06T12:44:56;99064.69;;;12.37;50.47
57114;BME280;42994;51.606;9.988;2023-04-06T12:47:23;99055.81;;;12.36;49.42
57114;BME280;42994;51.606;9.988;2023-04-06T12:49:51;99046.44;;;12.19;49.35
57114;BME280;42994;51.606;9.988;2023-04-06T12:52:19;99045.44;;;12.33;49.65
57114;BME280;42994;51.606;9.988;2023-04-06T12:54:48;99033.22;;;12.24;46.89
57114;BME280;42994;51.606;9.988;2023-04-06T12:57:15;99038.22;;;12.27;48.05
57114;BME280;42994;51.606;9.988;2023-04-06T12:59:43;99031.78;;;12.21;48.00
57114;BME280;42994;51.606;9.988;2023-04-06T13:02:10;99034.25;;;12.23;47.51
57114;BME280;42994;51.606;9.988;2023-04-06T13:04:36;99028.03;;;12.16;47.71
57114;BME280;42994;51.606;9.988;2023-04-06T13:07:03;99016.03;;;12.11;46.56
57114;BME280;42994;51.606;9.988;2023-04-06T13:09:30;99020.59;;;12.18;46.77
57114;BME280;42994;51.606;9.988;2023-04-06T13:11:58;99016.03;;;12.11;45.65